Time;durP1;ratioP1;P1;durP2;ratioP2;P2;SDS_P1;SDS_P2;PMS_P1;PMS_P2;Temp;Humidity;BMP_temperature;BMP_pressure;BME280_temperature;BME280_humidity;BME280_pressure;Samples;Min_cycle;Max_cycle;Signal;HPM_P1;HPM_P2
2022/08/08 00:00:17;;;;;;;10.13;7.38;;;;;;;17.52;62.68;102211.88;3584056;40;20391;-65
2022/08/08 00:02:51;;;;;;;8.55;6.97;;;;;;;17.49;63.11;102207.50;3585837;40;20055;-64
2022/08/08 00:05:33;;;;;;;10.48;7.25;;;;;;;17.46;62.80;102212.31;3587145;40;20060;-64
2022/08/08 00:08:37;;;;;;;7.43;6.72;;;;;;;17.38;63.23;102204.69;3584532;40;20071;-64
2022/08/08 00:11:21;;;;;;;12.00;7.40;;;;;;;17.37;63.35;102209.22;3585977;40;21412;-64
2022/08/08 00:14:25;;;;;;;10.48;7.32;;;;;;;17.36;63.24;102212.94;3584652;40;20295;-64
2022/08/08 00:17:04;;;;;;;;;;;;;;;17.30;63.66;102213.34;3584979;40;20049;-64
2022/08/08 00:19:43;;;;;;;8.98;7.38;;;;;;;17.25;64.24;102210.06;3584737;40;20261;-64
2022/08/08 00:22:29;;;;;;;13.13;8.45;;;;;;;17.19;64.44;102202.34;3588416;40;20056;-64
2022/08/08 00:25:12;;;;;;;13.30;8.18;;;;;;;17.19;64.39;102210.50;3582318;40;20383;-64
2022/08/08 00:27:41;;;;;;;15.30;8.55;;;;;;;17.19;64.38;102215.94;3584274;40;20428;-65
2022/08/08 00:30:11;;;;;;;11.23;8.30;;;;;;;17.10;64.50;102213.84;3591668;39;20060;-64
2022/08/08 00:33:10;;;;;;;10.88;8.05;;;;;;;17.09;64.89;102226.53;3587352;40;20115;-64
2022/08/08 00:36:26;;;;;;;11.57;8.15;;;;;;;17.01;65.27;102209.00;3585393;40;20132;-64
2022/08/08 00:39:12;;;;;;;11.85;8.48;;;;;;;16.98;65.44;102201.94;3583975;40;20365;-64
2022/08/08 00:42:02;;;;;;;12.60;8.45;;;;;;;17.06;65.28;102215.00;3583993;40;20371;-64
2022/08/08 00:45:10;;;;;;;11.32;8.05;;;;;;;17.04;65.69;102214.25;3586775;40;20079;-65
2022/08/08 00:48:21;;;;;;;10.50;9.40;;;;;;;16.98;65.67;102218.22;3583753;40;20126;-64
2022/08/08 00:51:42;;;;;;;10.90;8.65;;;;;;;16.94;65.74;102212.13;3583797;40;20422;-64
2022/08/08 00:54:34;;;;;;;12.05;9.05;;;;;;;16.88;65.89;102201.69;3582198;40;20055;-64
2022/08/08 00:58:07;;;;;;;12.65;9.10;;;;;;;16.89;66.12;102197.97;3585211;40;20437;-64
2022/08/08 01:00:52;;;;;;;11.88;8.82;;;;;;;16.63;65.78;102161.66;3584604;40;20044;-64
2022/08/08 01:03:58;;;;;;;10.73;8.98;;;;;;;16.84;65.93;102211.00;3583903;40;20056;-64
2022/08/08 01:06:57;;;;;;;10.50;9.05;;;;;;;16.81;66.45;102207.59;3584109;40;20059;-64
2022/08/08 01:09:31;;;;;;;12.50;9.05;;;;;;;16.79;66.95;102202.28;3584863;40;20048;-64
2022/08/08 01:12:11;;;;;;;13.73;9.30;;;;;;;16.76;66.63;102213.34;3583438;40;20059;-64
2022/08/08 01:15:21;;;;;;;13.43;9.35;;;;;;;16.70;66.53;102203.72;3583893;40;20088;-63
2022/08/08 01:18:25;;;;;;;12.50;9.35;;;;;;;16.71;67.19;102199.16;3582187;40;20249;-63
2022/08/08 01:21:29;;;;;;;11.20;9.23;;;;;;;16.62;66.97;102188.94;3582872;40;20060;-63
2022/08/08 01:23:54;;;;;;;13.52;9.43;;;;;;;16.66;67.26;102206.75;3583793;40;20292;-63
2022/08/08 01:27:02;;;;;;;12.07;10.05;;;;;;;16.62;67.51;102203.38;3584953;40;20043;-63
2022/08/08 01:29:31;;;;;;;13.75;9.88;;;;;;;16.58;67.97;102203.66;3583903;40;20378;-63
2022/08/08 01:32:25;;;;;;;12.35;9.70;;;;;;;16.56;67.71;102202.91;3583332;40;20141;-63
2022/08/08 01:35:26;;;;;;;11.52;10.00;;;;;;;16.46;67.97;102198.06;3587255;40;20063;-63
2022/08/08 01:38:34;;;;;;;12.95;10.05;;;;;;;16.44;67.80;102196.41;3587017;40;20072;-63
2022/08/08 01:41:52;;;;;;;11.48;9.95;;;;;;;16.44;68.22;102197.28;3588882;40;20056;-63
2022/08/08 01:44:57;;;;;;;13.32;9.60;;;;;;;16.33;68.26;102178.09;3585674;40;20060;-63
2022/08/08 01:47:56;;;;;;;13.40;10.63;;;;;;;16.42;68.50;102191.06;3585007;40;20207;-63
2022/08/08 01:51:06;;;;;;;12.52;10.30;;;;;;;16.37;68.46;102193.22;3586294;40;20263;-63
2022/08/08 01:54:07;;;;;;;11.88;10.27;;;;;;;16.34;68.19;102188.00;3579965;39;20420;-63
2022/08/08 01:56:58;;;;;;;13.98;10.38;;;;;;;16.35;68.58;102192.44;3585551;39;20044;-63
2022/08/08 01:59:41;;;;;;;13.98;9.65;;;;;;;16.31;68.80;102196.34;3587261;40;20060;-63
2022/08/08 02:03:14;;;;;;;12.80;10.15;;;;;;;16.24;69.27;102204.00;3586515;40;20334;-63
2022/08/08 02:05:57;;;;;;;12.98;11.02;;;;;;;16.18;69.13;102206.25;3562552;40;20059;-63
2022/08/08 02:09:02;;;;;;;12.05;10.20;;;;;;;16.15;69.67;102204.59;3584615;40;20052;-63
2022/08/08 02:11:43;;;;;;;14.90;10.50;;;;;;;16.13;70.00;102206.50;3587429;40;20045;-63
2022/08/08 02:14:52;;;;;;;12.40;11.13;;;;;;;16.10;69.29;102205.84;3584898;40;20062;-63
2022/08/08 02:18:12;;;;;;;14.35;10.80;;;;;;;16.04;69.77;102203.50;3584844;40;20049;-63
2022/08/08 02:23:53;;;;;;;12.60;10.35;;;;;;;15.97;70.51;102208.44;3587084;40;20072;-62
2022/08/08 02:26:47;;;;;;;14.27;11.43;;;;;;;15.96;70.91;102201.28;3587919;40;20129;-63
2022/08/08 02:29:25;;;;;;;15.00;11.27;;;;;;;15.98;70.35;102208.38;3587592;40;20058;-62
2022/08/08 02:32:28;;;;;;;16.67;11.20;;;;;;;15.99;70.61;102206.53;3588110;40;20054;-63
2022/08/08 02:35:28;;;;;;;15.20;10.90;;;;;;;15.98;70.71;102205.66;3596301;39;20101;-63
2022/08/08 02:38:24;;;;;;;14.25;11.35;;;;;;;15.95;70.91;102208.56;3589347;40;20044;-63
2022/08/08 02:41:16;;;;;;;17.85;11.65;;;;;;;15.92;71.48;102203.31;3587563;40;20105;-63
2022/08/08 02:44:16;;;;;;;16.40;11.68;;;;;;;15.89;70.54;102202.63;3585504;40;20051;-63
2022/08/08 02:47:50;;;;;;;13.68;11.05;;;;;;;15.86;71.08;102195.56;3588210;40;20055;-62
2022/08/08 02:50:49;;;;;;;15.30;11.55;;;;;;;15.84;71.16;102202.06;3587955;40;20052;-62
2022/08/08 02:53:49;;;;;;;15.73;11.80;;;;;;;15.83;71.30;102198.47;3584694;40;20056;-63
2022/08/08 02:56:33;;;;;;;14.48;11.10;;;;;;;15.81;71.54;102204.94;3586040;40;20056;-63
2022/08/08 02:59:39;;;;;;;14.50;11.10;;;;;;;15.81;71.34;102200.41;3586378;40;20052;-61
2022/08/08 03:02:47;;;;;;;13.65;11.48;;;;;;;15.85;72.04;102203.78;3586021;40;20124;-62
2022/08/08 03:06:05;;;;;;;18.40;11.75;;;;;;;15.79;71.64;102205.03;3585754;40;20056;-62
2022/08/08 03:09:08;;;;;;;13.77;11.85;;;;;;;15.77;71.77;102205.13;3577622;40;20057;-62
2022/08/08 03:12:20;;;;;;;16.35;12.13;;;;;;;15.73;71.84;102199.97;3575024;40;20162;-62
2022/08/08 03:15:04;;;;;;;13.52;11.55;;;;;;;15.73;71.90;102210.81;3586299;40;20128;-62
2022/08/08 03:18:27;;;;;;;18.63;12.23;;;;;;;15.70;71.92;102205.63;3585777;40;20145;-62
2022/08/08 03:20:52;;;;;;;15.65;12.00;;;;;;;15.66;72.32;102206.72;3586262;40;20044;-62
2022/08/08 03:23:21;;;;;;;15.75;12.50;;;;;;;15.63;71.97;102213.19;3592513;40;20071;-62
2022/08/08 03:25:49;;;;;;;14.25;11.65;;;;;;;15.58;72.55;102206.34;3589162;40;20137;-62
2022/08/08 03:28:30;;;;;;;14.32;11.65;;;;;;;15.59;72.24;102213.50;3588455;39;20256;-62
2022/08/08 03:30:56;;;;;;;13.82;11.18;;;;;;;15.55;71.57;102213.69;3590069;40;20095;-61
2022/08/08 03:33:22;;;;;;;16.60;11.35;;;;;;;15.53;71.60;102221.03;3589254;40;20150;-62
2022/08/08 03:35:50;;;;;;;15.88;11.18;;;;;;;15.47;71.80;102210.53;3589959;40;20071;-62
2022/08/08 03:38:21;;;;;;;17.33;12.10;;;;;;;15.52;71.75;102219.28;3586262;39;20052;-62
2022/08/08 03:40:53;;;;;;;12.68;11.00;;;;;;;15.48;71.53;102215.03;3587574;40;20059;-62
2022/08/08 03:43:19;;;;;;;17.55;11.65;;;;;;;15.45;71.78;102211.63;3586885;40;20109;-62
2022/08/08 03:45:46;;;;;;;16.02;11.02;;;;;;;15.44;71.74;102221.56;3586203;40;20056;-63
2022/08/08 03:48:12;;;;;;;15.75;11.77;;;;;;;15.42;71.82;102222.66;3588114;39;20048;-62
2022/08/08 03:50:48;;;;;;;16.83;11.98;;;;;;;15.41;72.09;102227.16;3585950;40;20398;-62
2022/08/08 03:53:19;;;;;;;14.02;11.85;;;;;;;15.30;72.03;102213.41;3586996;40;20052;-62
2022/08/08 03:55:49;;;;;;;14.75;11.52;;;;;;;15.31;72.46;102226.84;3587391;40;20051;-63
2022/08/08 03:58:24;;;;;;;18.35;13.40;;;;;;;15.31;71.80;102225.97;3584048;40;20062;-62
2022/08/08 04:00:56;;;;;;;17.80;12.65;;;;;;;15.25;72.94;102221.78;3585693;40;20056;-62
2022/08/08 04:03:23;;;;;;;19.60;12.35;;;;;;;15.01;72.74;102188.06;3587233;40;20068;-62
2022/08/08 04:05:49;;;;;;;14.73;12.05;;;;;;;14.89;72.59;102176.09;3588197;40;20064;-62
2022/08/08 04:08:24;;;;;;;16.95;12.38;;;;;;;15.23;72.87;102239.13;3587368;39;20121;-62
2022/08/08 04:10:51;;;;;;;17.02;12.27;;;;;;;15.08;73.23;102211.97;3589208;40;20047;-62
2022/08/08 04:13:21;;;;;;;14.95;12.80;;;;;;;15.19;73.80;102237.53;3587351;40;20435;-62
2022/08/08 04:15:47;;;;;;;15.35;13.07;;;;;;;15.18;74.25;102243.94;3588098;40;20044;-62
2022/08/08 04:18:13;;;;;;;18.70;12.88;;;;;;;15.18;74.18;102241.22;3586145;40;20117;-63
2022/08/08 04:20:39;;;;;;;14.57;12.82;;;;;;;15.15;74.22;102231.44;3585291;40;20088;-62
2022/08/08 04:23:06;;;;;;;18.80;12.73;;;;;;;15.19;74.24;102242.97;3584020;40;20087;-62
2022/08/08 04:25:32;;;;;;;16.23;12.75;;;;;;;15.19;74.42;102242.97;3584069;40;20097;-62
2022/08/08 04:27:59;;;;;;;16.92;13.20;;;;;;;15.12;74.78;102231.63;3588878;40;20059;-63
2022/08/08 04:30:24;;;;;;;15.57;13.30;;;;;;;15.19;75.12;102238.44;3586706;40;20044;-62
2022/08/08 04:32:50;;;;;;;15.10;13.40;;;;;;;15.22;74.51;102242.78;3586391;40;20170;-62
2022/08/08 04:35:18;;;;;;;15.25;12.15;;;;;;;15.22;74.86;102240.06;3584419;40;20048;-62
2022/08/08 04:37:43;;;;;;;16.50;13.25;;;;;;;15.26;74.51;102247.06;3583883;40;20052;-62
2022/08/08 04:40:10;;;;;;;21.65;13.73;;;;;;;15.26;74.54;102242.53;3589192;40;20105;-62
2022/08/08 04:42:36;;;;;;;17.50;14.00;;;;;;;15.30;74.50;102252.22;3587133;40;20319;-62
2022/08/08 04:45:05;;;;;;;16.80;13.07;;;;;;;15.35;74.32;102254.66;3588286;40;20378;-62
2022/08/08 04:47:30;;;;;;;14.95;13.13;;;;;;;15.28;74.58;102243.28;3586709;40;20092;-62
2022/08/08 04:49:56;;;;;;;15.90;12.70;;;;;;;15.40;74.19;102259.78;3588049;40;20364;-62
2022/08/08 04:52:22;;;;;;;18.25;13.25;;;;;;;15.42;74.45;102266.00;3586308;40;20323;-62
2022/08/08 04:54:47;;;;;;;17.52;12.90;;;;;;;15.44;74.22;102266.78;3586708;40;20118;-63
2022/08/08 04:57:13;;;;;;;17.63;13.02;;;;;;;15.44;74.38;102264.94;3583817;40;20052;-62
2022/08/08 04:59:39;;;;;;;18.70;13.88;;;;;;;15.43;74.31;102274.03;3585534;40;20057;-62
2022/08/08 05:02:05;;;;;;;19.00;13.77;;;;;;;15.45;74.57;102276.66;3586616;40;20121;-62
2022/08/08 05:04:31;;;;;;;19.45;14.05;;;;;;;15.44;74.54;102274.91;3586386;40;20064;-61
2022/08/08 05:06:57;;;;;;;20.77;13.85;;;;;;;15.22;74.44;102237.34;3587981;39;20048;-61
2022/08/08 05:09:23;;;;;;;20.67;14.57;;;;;;;15.52;74.69;102280.75;3586770;40;20062;-62
2022/08/08 05:11:49;;;;;;;18.50;13.75;;;;;;;15.52;75.01;102281.63;3587784;40;20052;-62
2022/08/08 05:14:16;;;;;;;17.05;13.57;;;;;;;15.56;74.55;102282.31;3586815;39;20064;-62
2022/08/08 05:16:42;;;;;;;16.35;13.88;;;;;;;15.58;74.69;102279.53;3586711;40;20091;-61
2022/08/08 05:19:13;;;;;;;18.23;14.23;;;;;;;15.59;74.36;102283.97;3587657;39;20051;-62
2022/08/08 05:21:43;;;;;;;17.77;13.93;;;;;;;15.50;74.67;102269.13;3586050;40;20044;-62
2022/08/08 05:24:10;;;;;;;15.30;12.50;;;;;;;15.62;74.34;102286.50;3587024;39;20088;-62
2022/08/08 05:26:40;;;;;;;15.23;12.57;;;;;;;15.63;74.64;102288.22;3586122;40;20053;-61
2022/08/08 05:29:07;;;;;;;15.98;12.80;;;;;;;15.69;74.70;102293.31;3584912;40;20110;-62
2022/08/08 05:31:34;;;;;;;14.63;12.10;;;;;;;15.75;74.56;102298.38;3584901;40;20068;-62
2022/08/08 05:34:05;;;;;;;15.02;11.80;;;;;;;15.81;74.32;102289.00;3588951;40;20099;-61
2022/08/08 05:36:36;;;;;;;14.30;11.82;;;;;;;15.83;74.17;102293.38;3584742;40;20055;-62
2022/08/08 05:39:05;;;;;;;16.10;10.80;;;;;;;15.88;74.55;102283.09;3586458;40;20109;-62
2022/08/08 05:41:35;;;;;;;12.68;10.63;;;;;;;15.95;73.78;102287.22;3584937;40;20048;-62
2022/08/08 05:44:12;;;;;;;13.50;10.65;;;;;;;16.02;73.70;102287.72;3586574;40;20075;-61
2022/08/08 05:46:40;;;;;;;12.40;10.48;;;;;;;16.08;73.88;102291.84;3587358;40;20057;-61
2022/08/08 05:49:07;;;;;;;14.45;10.35;;;;;;;16.16;73.70;102289.56;3585709;40;20044;-62
2022/08/08 05:51:33;;;;;;;12.82;9.90;;;;;;;16.19;73.03;102284.81;3583961;40;20044;-62
2022/08/08 05:53:59;;;;;;;14.65;10.65;;;;;;;16.26;73.59;102290.72;3585725;40;20091;-62
2022/08/08 05:56:27;;;;;;;15.05;10.82;;;;;;;16.15;72.93;102255.25;3586181;40;20058;-62
2022/08/08 05:59:03;;;;;;;12.43;10.63;;;;;;;16.41;72.41;102295.19;3585809;40;20058;-61
2022/08/08 06:01:31;;;;;;;12.30;11.00;;;;;;;16.51;72.26;102297.34;3588660;40;20056;-62
2022/08/08 06:04:03;;;;;;;14.73;11.25;;;;;;;16.56;72.03;102298.78;3586169;40;20044;-62
2022/08/08 06:06:30;;;;;;;13.77;10.93;;;;;;;16.59;71.89;102305.88;3584634;40;20058;-62
2022/08/08 06:09:03;;;;;;;14.13;10.50;;;;;;;16.62;71.89;102308.41;3585147;40;20059;-62
2022/08/08 06:11:33;;;;;;;13.48;10.40;;;;;;;16.47;71.66;102273.09;3586928;40;20052;-62
2022/08/08 06:14:04;;;;;;;12.43;10.30;;;;;;;16.71;71.85;102308.69;3583498;40;20056;-62
2022/08/08 06:16:37;;;;;;;16.05;10.90;;;;;;;16.82;71.30;102304.41;3585518;40;20089;-62
2022/08/08 06:19:03;;;;;;;15.15;11.02;;;;;;;16.86;71.78;102305.97;3588788;40;20083;-62
2022/08/08 06:21:30;;;;;;;16.33;11.02;;;;;;;16.90;71.28;102313.81;3585832;40;20048;-62
2022/08/08 06:23:56;;;;;;;14.02;11.18;;;;;;;16.91;70.33;102301.13;3584539;40;20417;-62
2022/08/08 06:26:35;;;;;;;12.30;9.85;;;;;;;17.05;70.10;102319.22;3587423;40;20063;-62
2022/08/08 06:29:08;;;;;;;15.38;10.50;;;;;;;17.18;71.13;102317.44;3583892;40;20056;-61
2022/08/08 06:31:36;;;;;;;12.95;9.98;;;;;;;17.35;70.46;102319.06;3585871;40;20048;-62
2022/08/08 06:34:17;;;;;;;15.48;10.23;;;;;;;17.54;70.26;102318.69;3584371;40;20048;-62
2022/08/08 06:36:45;;;;;;;12.30;9.60;;;;;;;17.69;68.54;102330.34;3585787;40;20052;-62
2022/08/08 06:39:13;;;;;;;10.82;9.32;;;;;;;17.79;67.83;102326.97;3584861;39;20056;-62
2022/08/08 06:42:01;;;;;;;12.40;9.07;;;;;;;17.93;67.58;102336.03;3585607;40;20048;-61
2022/08/08 06:44:28;;;;;;;13.25;8.65;;;;;;;18.03;67.70;102326.22;3584424;40;20371;-62
2022/08/08 06:46:56;;;;;;;10.07;8.77;;;;;;;18.22;67.59;102332.13;3582469;40;20287;-62
2022/08/08 06:49:22;;;;;;;18.20;8.85;;;;;;;18.37;66.95;102324.75;3586365;40;20142;-62
2022/08/08 06:51:48;;;;;;;11.70;8.60;;;;;;;18.63;64.97;102339.22;3584447;40;20434;-61
2022/08/08 06:54:14;;;;;;;9.45;7.75;;;;;;;18.82;64.84;102335.19;3586025;39;20048;-63
2022/08/08 06:56:42;;;;;;;10.98;8.00;;;;;;;18.96;65.38;102344.09;3585069;40;20455;-62
2022/08/08 06:59:08;;;;;;;9.80;7.78;;;;;;;19.20;64.26;102335.97;3586105;39;20051;-62
2022/08/08 07:01:44;;;;;;;9.35;7.63;;;;;;;19.36;63.70;102330.25;3585369;40;20048;-63
2022/08/08 07:04:36;;;;;;;10.38;7.43;;;;;;;19.51;62.34;102341.88;3584626;39;20048;-62
2022/08/08 07:07:03;;;;;;;11.43;7.32;;;;;;;19.61;61.39;102340.16;3583884;40;20055;-62
2022/08/08 07:09:41;;;;;;;10.57;7.43;;;;;;;19.67;61.44;102334.28;3586089;40;20048;-62
2022/08/08 07:12:08;;;;;;;10.23;6.90;;;;;;;19.80;62.46;102338.81;3586870;40;20149;-62
2022/08/08 07:14:53;;;;;;;11.32;6.47;;;;;;;19.98;59.60;102341.94;3585751;40;20059;-61
2022/08/08 07:17:24;;;;;;;8.80;6.35;;;;;;;20.15;61.02;102345.13;3587343;40;20728;-62
2022/08/08 07:20:07;;;;;;;9.68;6.60;;;;;;;20.37;60.28;102344.28;3587282;40;20271;-62
2022/08/08 07:22:41;;;;;;;;;;;;;;;20.59;59.17;102343.50;3586028;40;20301;-63
2022/08/08 07:25:10;;;;;;;8.55;5.72;;;;;;;20.82;57.68;102352.56;3586785;40;19944;-63
2022/08/08 07:27:45;;;;;;;9.30;5.65;;;;;;;21.03;56.89;102347.22;3587316;40;20472;-63
2022/08/08 07:30:12;;;;;;;9.50;5.10;;;;;;;21.18;56.23;102344.19;3585637;40;20542;-63
2022/08/08 07:32:39;;;;;;;6.55;4.30;;;;;;;21.45;55.93;102336.47;3584667;40;20052;-64
2022/08/08 07:35:06;;;;;;;7.18;4.00;;;;;;;21.66;54.37;102350.22;3586772;40;20067;-64
2022/08/08 07:37:35;;;;;;;10.70;5.05;;;;;;;21.69;53.59;102362.75;3589518;39;20495;-65
2022/08/08 07:40:02;;;;;;;6.13;3.72;;;;;;;21.72;52.72;102351.53;3586917;40;20055;-64
2022/08/08 07:42:36;;;;;;;9.88;4.20;;;;;;;21.68;53.11;102358.28;3588054;40;20063;-67
2022/08/08 07:45:01;;;;;;;7.35;4.18;;;;;;;21.72;52.86;102354.28;3586360;40;20055;-64
2022/08/08 07:47:27;;;;;;;8.82;4.03;;;;;;;21.79;53.24;102352.78;3586327;40;20092;-64
2022/08/08 07:49:53;;;;;;;6.97;3.85;;;;;;;21.93;53.46;102352.44;3587951;40;20048;-64
2022/08/08 07:52:19;;;;;;;6.65;3.60;;;;;;;22.08;52.50;102353.00;3586744;40;20670;-65
2022/08/08 07:55:31;;;;;;;5.60;3.55;;;;;;;22.22;52.91;102362.78;3588255;40;20371;-65
2022/08/08 07:58:38;;;;;;;5.22;3.53;;;;;;;22.39;51.90;102362.19;3586041;40;20279;-65
2022/08/08 08:01:19;;;;;;;3.83;2.78;;;;;;;22.46;51.09;102371.59;3586335;40;20084;-64
2022/08/08 08:03:54;;;;;;;7.20;3.28;;;;;;;22.43;51.52;102368.28;3587209;40;20055;-65
2022/08/08 08:06:21;;;;;;;5.07;3.65;;;;;;;22.55;51.21;102374.50;3585717;40;20909;-65
2022/08/08 08:08:53;;;;;;;5.07;3.60;;;;;;;22.40;50.84;102333.78;3586400;40;20078;-65
2022/08/08 08:11:23;;;;;;;8.00;2.80;;;;;;;22.76;50.45;102356.16;3589158;40;20338;-64
2022/08/08 08:14:08;;;;;;;5.50;2.67;;;;;;;22.99;49.09;102372.47;3587666;40;20397;-65
2022/08/08 08:16:38;;;;;;;3.90;2.78;;;;;;;23.16;49.11;102374.56;3586376;40;20410;-66
2022/08/08 08:19:08;;;;;;;3.38;2.47;;;;;;;23.35;48.61;102376.50;3584935;40;20052;-63
2022/08/08 08:21:42;;;;;;;3.55;2.55;;;;;;;23.54;47.65;102378.41;3585147;40;20556;-63
2022/08/08 08:24:08;;;;;;;17.80;11.25;;;;;;;23.64;47.76;102373.78;3586673;40;20381;-63
2022/08/08 08:26:34;;;;;;;4.60;2.78;;;;;;;23.71;47.13;102374.97;3584372;40;20122;-63
2022/08/08 08:29:00;;;;;;;4.35;2.50;;;;;;;23.76;47.88;102378.19;3586284;40;20286;-63
2022/08/08 08:31:26;;;;;;;4.60;2.30;;;;;;;23.86;47.03;102373.56;3585291;40;20056;-62
2022/08/08 08:33:52;;;;;;;7.05;2.47;;;;;;;23.95;46.45;102384.69;3586399;40;20051;-63
2022/08/08 08:36:18;;;;;;;4.80;2.00;;;;;;;24.15;47.02;102386.41;3584107;39;20075;-64
2022/08/08 08:38:44;;;;;;;4.88;2.50;;;;;;;24.19;45.30;102382.34;3586042;40;20060;-63
2022/08/08 08:41:11;;;;;;;2.85;2.25;;;;;;;24.32;45.17;102373.78;3586315;39;20058;-63
2022/08/08 08:43:39;;;;;;;3.63;1.80;;;;;;;24.46;45.04;102389.00;3586343;40;20056;-65
2022/08/08 08:46:11;;;;;;;5.07;2.17;;;;;;;24.43;44.98;102386.56;3584807;40;20078;-63
2022/08/08 08:48:40;;;;;;;4.95;2.15;;;;;;;24.51;44.31;102393.03;3585442;40;20068;-63
2022/08/08 08:51:12;;;;;;;5.57;2.00;;;;;;;24.42;43.15;102363.72;3585205;40;20057;-66
2022/08/08 08:53:53;;;;;;;2.53;1.93;;;;;;;24.49;44.41;102386.84;3584239;40;20044;-63
2022/08/08 08:56:20;;;;;;;5.72;2.03;;;;;;;24.65;44.76;102388.97;3586115;40;20374;-65
2022/08/08 08:58:49;;;;;;;3.08;1.65;;;;;;;24.70;43.83;102361.00;3587159;40;20044;-63
2022/08/08 09:01:18;;;;;;;3.42;2.10;;;;;;;24.95;43.25;102389.72;3584048;40;20087;-63
2022/08/08 09:03:47;;;;;;;4.72;1.73;;;;;;;25.07;42.12;102394.00;3586302;40;20065;-63
2022/08/08 09:06:19;;;;;;;2.92;1.90;;;;;;;25.26;41.70;102392.22;3587801;40;20048;-65
2022/08/08 09:08:58;;;;;;;4.75;1.67;;;;;;;25.46;40.29;102386.44;3586832;40;20059;-64
2022/08/08 09:11:24;;;;;;;2.53;1.70;;;;;;;25.54;41.50;102398.59;3588963;40;20048;-64
2022/08/08 09:13:52;;;;;;;2.92;1.63;;;;;;;25.60;40.95;102395.22;3585880;40;20118;-64
2022/08/08 09:16:18;;;;;;;4.65;1.95;;;;;;;25.69;41.17;102397.03;3583359;40;20104;-65
2022/08/08 09:18:45;;;;;;;2.92;1.80;;;;;;;25.67;39.43;102375.13;3585892;40;20122;-65
2022/08/08 09:21:13;;;;;;;4.40;1.60;;;;;;;25.84;39.31;102389.09;3586163;39;20063;-65
2022/08/08 09:23:39;;;;;;;4.78;1.67;;;;;;;25.90;39.35;102393.97;3586612;40;20075;-65
2022/08/08 09:26:42;;;;;;;2.08;1.50;;;;;;;26.06;39.54;102394.13;3584992;40;20188;-65
2022/08/08 09:29:21;;;;;;;2.60;1.65;;;;;;;25.97;39.58;102396.97;3586438;40;20059;-65
2022/08/08 09:31:59;;;;;;;3.40;1.88;;;;;;;26.13;39.72;102394.34;3584631;40;20056;-66
2022/08/08 09:34:31;;;;;;;2.20;1.45;;;;;;;26.22;37.82;102398.06;3588669;40;20055;-66
2022/08/08 09:37:04;;;;;;;2.65;1.25;;;;;;;26.43;37.59;102395.81;3584913;39;20089;-65
2022/08/08 09:39:45;;;;;;;;;;;;;;;26.70;39.33;102388.44;3586256;40;20587;-65
2022/08/08 09:42:20;;;;;;;18.17;13.05;;;;;;;26.87;38.58;102398.56;3586086;40;19966;-64
2022/08/08 09:45:18;;;;;;;13.75;8.25;;;;;;;26.96;37.98;102396.69;3585647;40;20054;-65
2022/08/08 09:47:46;;;;;;;2.60;1.25;;;;;;;27.15;37.46;102390.97;3584786;40;20047;-65
2022/08/08 09:50:29;;;;;;;1.88;1.20;;;;;;;27.31;38.40;102393.78;3583496;40;20047;-64
2022/08/08 09:52:56;;;;;;;2.80;1.00;;;;;;;27.30;37.22;102382.91;3584348;40;20383;-65
2022/08/08 09:55:24;;;;;;;2.22;1.23;;;;;;;27.38;37.07;102390.38;3585739;39;20056;-64
2022/08/08 09:58:06;;;;;;;2.38;1.30;;;;;;;27.19;37.75;102397.88;3584775;40;20372;-65
2022/08/08 10:00:37;;;;;;;2.00;1.17;;;;;;;27.33;38.06;102388.09;3586714;40;20398;-66
2022/08/08 10:03:04;;;;;;;2.42;1.30;;;;;;;27.02;37.09;102385.00;3584917;39;20059;-65
2022/08/08 10:05:36;;;;;;;1.70;0.95;;;;;;;26.50;38.18;102391.41;3583361;40;20044;-65
2022/08/08 10:08:04;;;;;;;4.65;1.38;;;;;;;26.72;38.25;102394.69;3586477;40;20044;-64
2022/08/08 10:10:37;;;;;;;3.22;1.33;;;;;;;26.95;38.91;102387.53;3583802;40;20060;-64
2022/08/08 10:13:30;;;;;;;3.45;1.67;;;;;;;27.41;38.79;102387.28;3585722;40;20361;-64
2022/08/08 10:16:00;;;;;;;2.35;1.00;;;;;;;27.86;38.41;102391.53;3585475;40;20401;-64
2022/08/08 10:18:35;;;;;;;2.78;1.40;;;;;;;27.96;35.68;102393.09;3586156;40;20052;-64
2022/08/08 10:21:07;;;;;;;2.13;1.38;;;;;;;27.94;35.73;102388.78;3586608;40;20063;-65
2022/08/08 10:23:33;;;;;;;4.85;1.40;;;;;;;28.06;36.29;102390.16;3584890;40;20056;-66
2022/08/08 10:26:01;;;;;;;3.72;1.45;;;;;;;28.18;36.80;102387.94;3583673;40;20126;-65
2022/08/08 10:28:35;;;;;;;3.30;1.23;;;;;;;27.99;36.62;102386.38;3585476;40;20557;-64
2022/08/08 10:32:30;;;;;;;2.13;1.20;;;;;;;28.12;37.33;102383.94;3585492;40;20121;-64
2022/08/08 10:33:52;;;;;;;1.38;0.80;;;;;;;28.29;34.34;102368.22;3585072;40;20055;-64
2022/08/08 10:36:24;;;;;;;1.80;1.00;;;;;;;28.04;35.67;102344.38;3585502;40;20153;-64
2022/08/08 10:38:57;;;;;;;1.90;1.05;;;;;;;28.21;35.42;102357.16;3585568;40;20048;-65
2022/08/08 10:41:30;;;;;;;3.22;1.55;;;;;;;28.11;36.30;102360.09;3588620;40;20052;-65
2022/08/08 10:43:58;;;;;;;2.25;1.00;;;;;;;28.35;34.79;102381.34;3591165;40;20040;-65
2022/08/08 10:46:24;;;;;;;4.38;1.13;;;;;;;27.99;35.82;102356.81;3589445;40;20294;-65
2022/08/08 10:48:55;;;;;;;4.70;1.60;;;;;;;27.74;35.78;102374.38;3588211;40;20286;-64
2022/08/08 10:51:26;;;;;;;3.45;1.60;;;;;;;27.39;36.48;102381.91;3586865;40;20467;-65
2022/08/08 10:53:56;;;;;;;3.72;1.45;;;;;;;27.09;37.04;102352.97;3587275;40;20081;-65
2022/08/08 10:56:23;;;;;;;5.28;1.73;;;;;;;27.63;38.01;102385.78;3590066;40;20041;-65
2022/08/08 10:58:59;;;;;;;3.28;1.20;;;;;;;27.99;35.32;102380.84;3588962;39;20052;-65
2022/08/08 11:01:30;;;;;;;5.18;1.30;;;;;;;28.00;36.38;102369.63;3586804;40;20056;-65
2022/08/08 11:03:59;;;;;;;1.70;1.23;;;;;;;28.20;35.59;102363.75;3586133;40;20051;-65
2022/08/08 11:06:34;;;;;;;3.47;1.00;;;;;;;27.96;34.60;102376.50;3586500;40;20151;-65
2022/08/08 11:09:08;;;;;;;2.17;1.20;;;;;;;27.76;36.47;102366.78;3584745;40;20157;-65
2022/08/08 11:11:44;;;;;;;1.95;0.93;;;;;;;27.81;34.97;102366.31;3584987;40;20585;-65
2022/08/08 11:14:13;;;;;;;2.42;1.40;;;;;;;28.17;36.60;102369.63;3586984;40;20044;-65
2022/08/08 11:16:44;;;;;;;2.38;1.13;;;;;;;28.79;36.78;102361.56;3586995;40;20060;-65
2022/08/08 11:19:11;;;;;;;2.15;1.20;;;;;;;29.14;36.22;102349.16;3585994;39;20046;-65
2022/08/08 11:21:45;;;;;;;3.55;1.50;;;;;;;29.43;33.62;102368.94;3585764;40;20055;-65
2022/08/08 11:24:12;;;;;;;2.13;0.90;;;;;;;29.28;32.72;102368.88;3587289;39;20317;-65
2022/08/08 11:26:41;;;;;;;4.20;1.20;;;;;;;28.69;32.77;102330.47;3586763;40;20059;-65
2022/08/08 11:29:08;;;;;;;3.90;0.95;;;;;;;28.54;34.25;102362.66;3585456;39;20048;-65
2022/08/08 11:32:04;;;;;;;3.45;1.02;;;;;;;28.26;33.88;102354.75;3586468;40;20055;-65
2022/08/08 11:34:36;;;;;;;4.28;1.30;;;;;;;27.92;35.46;102354.94;3585617;40;20063;-65
2022/08/08 11:37:04;;;;;;;1.90;1.05;;;;;;;27.65;34.58;102339.47;3585408;40;20047;-65
2022/08/08 11:39:32;;;;;;;2.03;1.00;;;;;;;27.79;35.29;102347.16;3586947;40;20464;-65
2022/08/08 11:41:59;;;;;;;2.97;0.88;;;;;;;27.80;35.76;102362.69;3587451;40;20058;-65
2022/08/08 11:44:27;;;;;;;2.55;0.93;;;;;;;27.64;35.13;102357.09;3586627;40;20048;-65
2022/08/08 11:46:56;;;;;;;2.10;0.80;;;;;;;27.33;35.44;102360.47;3587257;40;20048;-65
2022/08/08 11:49:24;;;;;;;2.10;1.20;;;;;;;27.01;35.14;102359.28;3585878;40;20083;-65
2022/08/08 11:51:53;;;;;;;1.60;1.20;;;;;;;26.87;35.72;102359.94;3587420;40;20052;-65
2022/08/08 11:54:31;;;;;;;1.85;1.00;;;;;;;26.82;35.60;102359.53;3585669;40;20058;-64
2022/08/08 11:57:12;;;;;;;4.15;0.90;;;;;;;27.00;35.88;102354.81;3587128;39;20043;-65
2022/08/08 12:00:01;;;;;;;1.45;1.17;;;;;;;27.25;36.83;102352.19;3588349;40;20387;-65
2022/08/08 12:02:30;;;;;;;1.73;1.20;;;;;;;27.39;34.10;102353.41;3585930;40;20064;-65
2022/08/08 12:05:03;;;;;;;1.63;0.95;;;;;;;27.79;33.68;102349.91;3584464;40;20098;-65
2022/08/08 12:07:29;;;;;;;1.45;0.68;;;;;;;28.52;33.93;102345.41;3586004;40;20106;-65